sensor_id;sensor_type;location;lat;lon;timestamp;P1;durP1;ratioP1;P2;durP2;ratioP2
16387;SDS011;8303;53.446;9.988;2022-10-16T04:47:14;5.57;;;3.97;;
16387;SDS011;8303;53.446;9.988;2022-10-16T04:49:42;7.47;;;4.13;;
16387;SDS011;8303;53.446;9.988;2022-10-16T04:52:09;6.13;;;4.63;;
16387;SDS011;8303;53.446;9.988;2022-10-16T04:54:36;8.10;;;4.57;;
16387;SDS011;8303;53.446;9.988;2022-10-16T04:57:03;9.03;;;4.57;;
16387;SDS011;8303;53.446;9.988;2022-10-16T04:59:30;8.50;;;4.50;;
16387;SDS011;8303;53.446;9.988;2022-10-16T05:01:57;6.83;;;4.83;;
16387;SDS011;8303;53.446;9.988;2022-10-16T05:04:25;10.80;;;4.80;;
16387;SDS011;8303;53.446;9.988;2022-10-16T05:06:52;10.17;;;5.00;;
16387;SDS011;8303;53.446;9.988;2022-10-16T05:09:19;7.90;;;4.30;;
16387;SDS011;8303;53.446;9.988;2022-10-16T05:11:45;6.57;;;4.10;;
16387;SDS011;8303;53.446;9.988;2022-10-16T05:14:12;8.77;;;4.20;;
16387;SDS011;8303;53.446;9.988;2022-10-16T05:16:39;5.60;;;4.63;;
16387;SDS011;8303;53.446;9.988;2022-10-16T05:19:06;9.47;;;4.60;;
16387;SDS011;8303;53.446;9.988;2022-10-16T05:21:35;8.97;;;4.70;;
16387;SDS011;8303;53.446;9.988;2022-10-16T05:24:01;13.37;;;4.63;;
16387;SDS011;8303;53.446;9.988;2022-10-16T05:26:28;5.07;;;4.00;;
16387;SDS011;8303;53.446;9.988;2022-10-16T05:28:55;10.53;;;5.07;;
16387;SDS011;8303;53.446;9.988;2022-10-16T05:31:22;6.83;;;4.43;;
16387;SDS011;8303;53.446;9.988;2022-10-16T05:33:57;8.33;;;4.77;;
16387;SDS011;8303;53.446;9.988;2022-10-16T05:36:24;10.17;;;5.30;;
16387;SDS011;8303;53.446;9.988;2022-10-16T05:38:53;10.20;;;4.93;;
16387;SDS011;8303;53.446;9.988;2022-10-16T05:41:20;6.20;;;4.47;;
16387;SDS011;8303;53.446;9.988;2022-10-16T05:43:48;9.63;;;4.43;;
16387;SDS011;8303;53.446;9.988;2022-10-16T05:46:15;6.33;;;4.30;;
16387;SDS011;8303;53.446;9.988;2022-10-16T05:48:43;5.53;;;4.43;;
16387;SDS011;8303;53.446;9.988;2022-10-16T05:51:11;9.73;;;4.53;;
16387;SDS011;8303;53.446;9.988;2022-10-16T05:53:40;6.60;;;4.50;;
16387;SDS011;8303;53.446;9.988;2022-10-16T05:56:10;9.13;;;5.20;;
16387;SDS011;8303;53.446;9.988;2022-10-16T05:58:38;7.70;;;4.47;;
16387;SDS011;8303;53.446;9.988;2022-10-16T06:01:07;12.03;;;5.30;;
16387;SDS011;8303;53.446;9.988;2022-10-16T06:03:36;9.23;;;5.00;;
16387;SDS011;8303;53.446;9.988;2022-10-16T06:06:10;9.37;;;4.97;;
16387;SDS011;8303;53.446;9.988;2022-10-16T06:08:41;7.87;;;5.17;;
16387;SDS011;8303;53.446;9.988;2022-10-16T06:11:12;5.97;;;5.37;;
16387;SDS011;8303;53.446;9.988;2022-10-16T06:13:40;9.43;;;4.80;;
16387;SDS011;8303;53.446;9.988;2022-10-16T06:16:08;14.33;;;5.90;;
16387;SDS011;8303;53.446;9.988;2022-10-16T06:18:35;9.00;;;5.13;;
16387;SDS011;8303;53.446;9.988;2022-10-16T06:21:06;6.90;;;5.23;;
16387;SDS011;8303;53.446;9.988;2022-10-16T06:23:34;9.90;;;4.93;;
16387;SDS011;8303;53.446;9.988;2022-10-16T06:26:04;10.10;;;5.00;;
16387;SDS011;8303;53.446;9.988;2022-10-16T06:28:33;8.53;;;5.20;;
16387;SDS011;8303;53.446;9.988;2022-10-16T06:31:01;10.57;;;5.53;;
16387;SDS011;8303;53.446;9.988;2022-10-16T06:33:29;10.63;;;6.20;;
16387;SDS011;8303;53.446;9.988;2022-10-16T06:35:59;7.17;;;5.50;;
16387;SDS011;8303;53.446;9.988;2022-10-16T06:38:27;8.90;;;5.67;;
16387;SDS011;8303;53.446;9.988;2022-10-16T06:40:54;8.33;;;6.20;;
16387;SDS011;8303;53.446;9.988;2022-10-16T06:43:21;8.23;;;5.33;;
16387;SDS011;8303;53.446;9.988;2022-10-16T06:45:51;8.70;;;6.30;;
16387;SDS011;8303;53.446;9.988;2022-10-16T06:48:19;7.17;;;6.17;;
16387;SDS011;8303;53.446;9.988;2022-10-16T06:50:54;9.00;;;6.43;;
16387;SDS011;8303;53.446;9.988;2022-10-16T06:53:22;10.27;;;6.20;;
16387;SDS011;8303;53.446;9.988;2022-10-16T06:55:49;12.10;;;6.00;;
16387;SDS011;8303;53.446;9.988;2022-10-16T06:58:17;11.43;;;6.53;;
16387;SDS011;8303;53.446;9.988;2022-10-16T07:00:44;9.80;;;6.53;;
16387;SDS011;8303;53.446;9.988;2022-10-16T07:03:12;13.23;;;6.43;;
16387;SDS011;8303;53.446;9.988;2022-10-16T07:05:39;11.33;;;6.43;;
16387;SDS011;8303;53.446;9.988;2022-10-16T07:08:07;12.33;;;6.87;;
16387;SDS011;8303;53.446;9.988;2022-10-16T07:10:35;9.17;;;6.80;;
16387;SDS011;8303;53.446;9.988;2022-10-16T07:13:01;11.70;;;6.73;;
16387;SDS011;8303;53.446;9.988;2022-10-16T07:15:28;14.33;;;6.80;;
16387;SDS011;8303;53.446;9.988;2022-10-16T07:17:55;12.97;;;7.63;;
16387;SDS011;8303;53.446;9.988;2022-10-16T07:20:23;9.00;;;7.50;;
16387;SDS011;8303;53.446;9.988;2022-10-16T07:22:50;10.77;;;7.63;;
16387;SDS011;8303;53.446;9.988;2022-10-16T07:25:18;9.07;;;6.40;;
16387;SDS011;8303;53.446;9.988;2022-10-16T07:27:45;8.00;;;6.23;;
16387;SDS011;8303;53.446;9.988;2022-10-16T07:30:12;9.47;;;6.13;;
16387;SDS011;8303;53.446;9.988;2022-10-16T07:32:38;7.70;;;5.90;;
16387;SDS011;8303;53.446;9.988;2022-10-16T07:35:06;14.13;;;6.07;;
16387;SDS011;8303;53.446;9.988;2022-10-16T07:37:36;8.47;;;5.77;;
16387;SDS011;8303;53.446;9.988;2022-10-16T07:40:03;5.77;;;5.17;;
16387;SDS011;8303;53.446;9.988;2022-10-16T07:42:31;6.50;;;4.90;;
16387;SDS011;8303;53.446;9.988;2022-10-16T07:44:58;9.37;;;5.00;;
16387;SDS011;8303;53.446;9.988;2022-10-16T07:47:25;9.23;;;4.90;;
16387;SDS011;8303;53.446;9.988;2022-10-16T07:49:51;8.07;;;5.10;;
16387;SDS011;8303;53.446;9.988;2022-10-16T07:52:18;10.20;;;4.77;;
16387;SDS011;8303;53.446;9.988;2022-10-16T07:54:47;7.67;;;4.63;;
16387;SDS011;8303;53.446;9.988;2022-10-16T07:57:14;8.10;;;4.17;;
16387;SDS011;8303;53.446;9.988;2022-10-16T07:59:44;7.07;;;4.43;;
16387;SDS011;8303;53.446;9.988;2022-10-16T08:02:11;8.20;;;4.43;;
16387;SDS011;8303;53.446;9.988;2022-10-16T08:04:38;5.00;;;4.00;;
16387;SDS011;8303;53.446;9.988;2022-10-16T08:07:06;9.33;;;5.20;;
16387;SDS011;8303;53.446;9.988;2022-10-16T08:09:34;6.53;;;3.90;;
16387;SDS011;8303;53.446;9.988;2022-10-16T08:12:02;4.87;;;3.90;;
16387;SDS011;8303;53.446;9.988;2022-10-16T08:14:30;5.57;;;3.57;;
16387;SDS011;8303;53.446;9.988;2022-10-16T08:17:00;6.40;;;3.37;;
16387;SDS011;8303;53.446;9.988;2022-10-16T08:19:29;4.13;;;3.30;;
16387;SDS011;8303;53.446;9.988;2022-10-16T08:21:59;5.07;;;3.53;;
16387;SDS011;8303;53.446;9.988;2022-10-16T08:24:26;6.00;;;3.70;;
16387;SDS011;8303;53.446;9.988;2022-10-16T08:26:55;5.03;;;3.33;;
16387;SDS011;8303;53.446;9.988;2022-10-16T08:29:24;5.37;;;3.50;;
16387;SDS011;8303;53.446;9.988;2022-10-16T08:31:51;3.90;;;3.50;;
16387;SDS011;8303;53.446;9.988;2022-10-16T08:34:18;6.17;;;3.60;;
16387;SDS011;8303;53.446;9.988;2022-10-16T08:36:45;8.70;;;3.30;;
16387;SDS011;8303;53.446;9.988;2022-10-16T08:39:12;5.73;;;3.70;;
16387;SDS011;8303;53.446;9.988;2022-10-16T08:44:43;4.43;;;3.30;;
16387;SDS011;8303;53.446;9.988;2022-10-16T08:47:32;3.73;;;3.37;;
16387;SDS011;8303;53.446;9.988;2022-10-16T08:50:10;4.10;;;3.10;;
16387;SDS011;8303;53.446;9.988;2022-10-16T08:52:40;6.20;;;3.47;;
16387;SDS011;8303;53.446;9.988;2022-10-16T08:55:11;4.13;;;2.90;;
16387;SDS011;8303;53.446;9.988;2022-10-16T08:57:50;3.43;;;3.10;;
16387;SDS011;8303;53.446;9.988;2022-10-16T09:00:18;6.97;;;3.50;;
16387;SDS011;8303;53.446;9.988;2022-10-16T09:02:49;4.87;;;2.90;;
16387;SDS011;8303;53.446;9.988;2022-10-16T09:05:24;4.37;;;3.40;;
16387;SDS011;8303;53.446;9.988;2022-10-16T09:08:06;4.57;;;3.07;;
16387;SDS011;8303;53.446;9.988;2022-10-16T09:10:41;5.73;;;2.97;;
16387;SDS011;8303;53.446;9.988;2022-10-16T09:13:17;6.63;;;3.60;;
16387;SDS011;8303;53.446;9.988;2022-10-16T09:15:49;5.63;;;3.10;;
16387;SDS011;8303;53.446;9.988;2022-10-16T09:18:23;3.47;;;3.03;;
16387;SDS011;8303;53.446;9.988;2022-10-16T09:20:57;4.00;;;3.10;;
16387;SDS011;8303;53.446;9.988;2022-10-16T09:23:33;3.40;;;2.93;;
16387;SDS011;8303;53.446;9.988;2022-10-16T09:26:01;4.80;;;3.37;;
16387;SDS011;8303;53.446;9.988;2022-10-16T09:28:30;4.77;;;3.13;;
16387;SDS011;8303;53.446;9.988;2022-10-16T09:30:58;3.07;;;2.70;;
16387;SDS011;8303;53.446;9.988;2022-10-16T09:33:28;7.53;;;2.70;;
16387;SDS011;8303;53.446;9.988;2022-10-16T09:35:56;4.50;;;2.40;;
16387;SDS011;8303;53.446;9.988;2022-10-16T09:38:28;7.13;;;2.60;;
16387;SDS011;8303;53.446;9.988;2022-10-16T09:40:56;5.67;;;2.50;;
16387;SDS011;8303;53.446;9.988;2022-10-16T09:43:25;3.95;;;2.63;;
16387;SDS011;8303;53.446;9.988;2022-10-16T09:46:03;4.27;;;2.33;;
16387;SDS011;8303;53.446;9.988;2022-10-16T09:48:33;3.23;;;2.40;;
16387;SDS011;8303;53.446;9.988;2022-10-16T09:51:04;4.33;;;2.90;;
16387;SDS011;8303;53.446;9.988;2022-10-16T09:53:41;3.67;;;2.70;;
16387;SDS011;8303;53.446;9.988;2022-10-16T09:56:20;5.90;;;2.67;;
16387;SDS011;8303;53.446;9.988;2022-10-16T09:58:51;4.27;;;2.20;;
16387;SDS011;8303;53.446;9.988;2022-10-16T10:01:21;8.03;;;2.70;;
16387;SDS011;8303;53.446;9.988;2022-10-16T10:03:50;4.23;;;2.33;;
16387;SDS011;8303;53.446;9.988;2022-10-16T10:06:26;4.10;;;2.23;;
16387;SDS011;8303;53.446;9.988;2022-10-16T10:09:04;3.87;;;2.70;;
16387;SDS011;8303;53.446;9.988;2022-10-16T10:11:49;3.03;;;2.13;;
16387;SDS011;8303;53.446;9.988;2022-10-16T10:14:25;4.93;;;2.40;;
16387;SDS011;8303;53.446;9.988;2022-10-16T10:17:16;5.32;;;2.15;;
16387;SDS011;8303;53.446;9.988;2022-10-16T10:19:54;4.07;;;2.15;;
16387;SDS011;8303;53.446;9.988;2022-10-16T10:22:25;4.15;;;2.17;;
16387;SDS011;8303;53.446;9.988;2022-10-16T10:27:56;3.70;;;2.60;;
16387;SDS011;8303;53.446;9.988;2022-10-16T10:30:46;2.88;;;1.83;;
16387;SDS011;8303;53.446;9.988;2022-10-16T10:33:20;2.63;;;2.03;;
16387;SDS011;8303;53.446;9.988;2022-10-16T10:35:56;4.93;;;2.00;;
16387;SDS011;8303;53.446;9.988;2022-10-16T10:38:35;5.28;;;2.67;;
16387;SDS011;8303;53.446;9.988;2022-10-16T10:41:18;5.47;;;1.90;;
16387;SDS011;8303;53.446;9.988;2022-10-16T10:44:21;2.42;;;1.83;;
16387;SDS011;8303;53.446;9.988;2022-10-16T10:46:57;3.25;;;2.08;;
16387;SDS011;8303;53.446;9.988;2022-10-16T10:49:37;3.83;;;2.10;;
16387;SDS011;8303;53.446;9.988;2022-10-16T10:52:27;2.38;;;2.17;;
16387;SDS011;8303;53.446;9.988;2022-10-16T10:55:09;4.35;;;2.10;;
16387;SDS011;8303;53.446;9.988;2022-10-16T10:57:48;3.40;;;2.25;;
16387;SDS011;8303;53.446;9.988;2022-10-16T11:00:28;4.85;;;2.00;;
16387;SDS011;8303;53.446;9.988;2022-10-16T11:03:04;3.63;;;2.25;;
16387;SDS011;8303;53.446;9.988;2022-10-16T11:05:41;3.53;;;2.10;;
16387;SDS011;8303;53.446;9.988;2022-10-16T11:08:13;7.25;;;2.20;;
16387;SDS011;8303;53.446;9.988;2022-10-16T11:10:47;2.33;;;1.88;;
16387;SDS011;8303;53.446;9.988;2022-10-16T11:13:20;4.80;;;2.05;;
16387;SDS011;8303;53.446;9.988;2022-10-16T11:15:55;2.55;;;2.25;;
16387;SDS011;8303;53.446;9.988;2022-10-16T11:18:26;6.18;;;2.17;;
16387;SDS011;8303;53.446;9.988;2022-10-16T11:21:02;3.13;;;1.92;;
16387;SDS011;8303;53.446;9.988;2022-10-16T11:23:35;6.30;;;2.40;;
16387;SDS011;8303;53.446;9.988;2022-10-16T11:26:08;6.07;;;1.90;;
16387;SDS011;8303;53.446;9.988;2022-10-16T11:28:40;3.50;;;1.85;;
16387;SDS011;8303;53.446;9.988;2022-10-16T11:31:13;4.88;;;1.80;;
16387;SDS011;8303;53.446;9.988;2022-10-16T11:33:44;1.92;;;1.83;;
16387;SDS011;8303;53.446;9.988;2022-10-16T11:36:17;4.03;;;2.00;;
16387;SDS011;8303;53.446;9.988;2022-10-16T11:38:48;9.63;;;1.95;;
16387;SDS011;8303;53.446;9.988;2022-10-16T11:41:21;5.88;;;2.00;;
16387;SDS011;8303;53.446;9.988;2022-10-16T11:43:56;4.88;;;2.15;;
16387;SDS011;8303;53.446;9.988;2022-10-16T11:46:46;5.30;;;1.98;;
16387;SDS011;8303;53.446;9.988;2022-10-16T11:49:18;3.42;;;1.67;;
16387;SDS011;8303;53.446;9.988;2022-10-16T11:51:51;2.85;;;1.65;;
16387;SDS011;8303;53.446;9.988;2022-10-16T11:54:24;7.78;;;2.22;;
16387;SDS011;8303;53.446;9.988;2022-10-16T11:56:57;3.63;;;1.80;;
16387;SDS011;8303;53.446;9.988;2022-10-16T11:59:34;4.68;;;1.85;;
16387;SDS011;8303;53.446;9.988;2022-10-16T12:02:25;4.13;;;1.90;;
16387;SDS011;8303;53.446;9.988;2022-10-16T12:05:18;2.58;;;1.85;;
16387;SDS011;8303;53.446;9.988;2022-10-16T12:07:55;4.75;;;2.22;;
16387;SDS011;8303;53.446;9.988;2022-10-16T12:10:28;3.58;;;2.03;;
16387;SDS011;8303;53.446;9.988;2022-10-16T12:13:02;6.10;;;2.80;;
16387;SDS011;8303;53.446;9.988;2022-10-16T12:15:30;3.80;;;1.73;;
16387;SDS011;8303;53.446;9.988;2022-10-16T12:17:58;4.70;;;2.45;;
16387;SDS011;8303;53.446;9.988;2022-10-16T12:20:27;2.38;;;1.83;;
16387;SDS011;8303;53.446;9.988;2022-10-16T12:22:58;5.60;;;2.65;;
16387;SDS011;8303;53.446;9.988;2022-10-16T12:25:29;7.13;;;2.60;;
16387;SDS011;8303;53.446;9.988;2022-10-16T12:28:01;4.63;;;2.10;;
16387;SDS011;8303;53.446;9.988;2022-10-16T12:30:31;4.78;;;2.63;;
16387;SDS011;8303;53.446;9.988;2022-10-16T12:32:59;6.47;;;2.47;;
16387;SDS011;8303;53.446;9.988;2022-10-16T12:35:29;2.85;;;2.00;;
16387;SDS011;8303;53.446;9.988;2022-10-16T12:38:06;6.75;;;1.90;;
16387;SDS011;8303;53.446;9.988;2022-10-16T12:40:40;9.00;;;2.10;;
16387;SDS011;8303;53.446;9.988;2022-10-16T12:46:21;3.13;;;1.80;;
16387;SDS011;8303;53.446;9.988;2022-10-16T12:51:50;3.05;;;1.80;;
16387;SDS011;8303;53.446;9.988;2022-10-16T12:54:20;2.95;;;1.63;;
16387;SDS011;8303;53.446;9.988;2022-10-16T12:56:57;5.45;;;1.85;;
16387;SDS011;8303;53.446;9.988;2022-10-16T12:59:35;5.38;;;2.00;;
16387;SDS011;8303;53.446;9.988;2022-10-16T13:02:15;5.03;;;2.10;;
16387;SDS011;8303;53.446;9.988;2022-10-16T13:05:24;4.43;;;3.03;;
16387;SDS011;8303;53.446;9.988;2022-10-16T13:08:02;4.70;;;2.00;;
16387;SDS011;8303;53.446;9.988;2022-10-16T13:10:46;4.75;;;2.00;;
16387;SDS011;8303;53.446;9.988;2022-10-16T13:13:37;3.22;;;1.63;;
16387;SDS011;8303;53.446;9.988;2022-10-16T13:16:26;3.97;;;2.03;;
16387;SDS011;8303;53.446;9.988;2022-10-16T13:19:04;3.05;;;1.70;;
16387;SDS011;8303;53.446;9.988;2022-10-16T13:21:43;3.15;;;2.15;;
16387;SDS011;8303;53.446;9.988;2022-10-16T13:24:20;3.47;;;2.00;;
16387;SDS011;8303;53.446;9.988;2022-10-16T13:27:15;4.03;;;2.10;;
16387;SDS011;8303;53.446;9.988;2022-10-16T13:29:52;6.65;;;2.20;;
16387;SDS011;8303;53.446;9.988;2022-10-16T13:32:24;5.93;;;3.03;;
16387;SDS011;8303;53.446;9.988;2022-10-16T13:34:53;4.88;;;2.17;;
16387;SDS011;8303;53.446;9.988;2022-10-16T13:37:21;4.47;;;1.92;;
16387;SDS011;8303;53.446;9.988;2022-10-16T13:40:01;5.20;;;2.05;;
16387;SDS011;8303;53.446;9.988;2022-10-16T13:42:35;7.90;;;2.53;;
16387;SDS011;8303;53.446;9.988;2022-10-16T13:45:02;6.53;;;2.30;;
16387;SDS011;8303;53.446;9.988;2022-10-16T13:47:29;2.80;;;1.65;;
16387;SDS011;8303;53.446;9.988;2022-10-16T13:49:59;5.88;;;2.00;;
16387;SDS011;8303;53.446;9.988;2022-10-16T13:52:27;6.03;;;1.90;;
16387;SDS011;8303;53.446;9.988;2022-10-16T13:54:57;10.13;;;2.15;;
16387;SDS011;8303;53.446;9.988;2022-10-16T13:57:24;3.30;;;1.90;;
16387;SDS011;8303;53.446;9.988;2022-10-16T13:59:53;4.70;;;2.50;;
16387;SDS011;8303;53.446;9.988;2022-10-16T14:02:22;11.93;;;2.53;;
16387;SDS011;8303;53.446;9.988;2022-10-16T14:04:55;5.68;;;1.90;;
16387;SDS011;8303;53.446;9.988;2022-10-16T14:07:24;4.80;;;2.20;;
16387;SDS011;8303;53.446;9.988;2022-10-16T14:09:53;5.75;;;2.40;;
16387;SDS011;8303;53.446;9.988;2022-10-16T14:12:21;3.63;;;1.92;;
16387;SDS011;8303;53.446;9.988;2022-10-16T14:14:49;2.58;;;1.80;;
16387;SDS011;8303;53.446;9.988;2022-10-16T14:17:21;3.50;;;1.80;;
16387;SDS011;8303;53.446;9.988;2022-10-16T14:19:50;6.05;;;1.90;;
16387;SDS011;8303;53.446;9.988;2022-10-16T14:22:23;5.30;;;2.10;;
16387;SDS011;8303;53.446;9.988;2022-10-16T14:24:56;4.38;;;2.00;;
16387;SDS011;8303;53.446;9.988;2022-10-16T14:27:28;7.68;;;2.10;;
16387;SDS011;8303;53.446;9.988;2022-10-16T14:30:15;4.72;;;2.28;;
16387;SDS011;8303;53.446;9.988;2022-10-16T14:32:55;4.85;;;2.30;;
16387;SDS011;8303;53.446;9.988;2022-10-16T14:35:28;4.78;;;1.92;;
16387;SDS011;8303;53.446;9.988;2022-10-16T14:37:56;2.92;;;1.70;;
16387;SDS011;8303;53.446;9.988;2022-10-16T14:40:25;4.40;;;1.75;;
16387;SDS011;8303;53.446;9.988;2022-10-16T14:42:55;5.72;;;2.75;;
16387;SDS011;8303;53.446;9.988;2022-10-16T14:45:24;5.20;;;2.00;;
16387;SDS011;8303;53.446;9.988;2022-10-16T14:47:54;6.35;;;2.40;;
16387;SDS011;8303;53.446;9.988;2022-10-16T14:50:22;6.47;;;2.28;;
16387;SDS011;8303;53.446;9.988;2022-10-16T14:53:14;6.60;;;2.35;;
16387;SDS011;8303;53.446;9.988;2022-10-16T14:55:41;6.40;;;2.85;;
16387;SDS011;8303;53.446;9.988;2022-10-16T14:58:09;5.80;;;2.17;;
16387;SDS011;8303;53.446;9.988;2022-10-16T15:00:42;8.68;;;2.08;;
16387;SDS011;8303;53.446;9.988;2022-10-16T15:03:09;11.10;;;2.17;;
16387;SDS011;8303;53.446;9.988;2022-10-16T15:05:37;9.77;;;2.50;;
16387;SDS011;8303;53.446;9.988;2022-10-16T15:08:03;3.53;;;2.10;;
16387;SDS011;8303;53.446;9.988;2022-10-16T15:10:31;5.90;;;2.50;;
16387;SDS011;8303;53.446;9.988;2022-10-16T15:13:04;3.80;;;2.00;;
16387;SDS011;8303;53.446;9.988;2022-10-16T15:15:32;5.45;;;2.15;;
16387;SDS011;8303;53.446;9.988;2022-10-16T15:18:02;5.18;;;1.90;;
16387;SDS011;8303;53.446;9.988;2022-10-16T15:20:30;5.35;;;2.10;;
16387;SDS011;8303;53.446;9.988;2022-10-16T15:22:59;3.50;;;2.38;;
16387;SDS011;8303;53.446;9.988;2022-10-16T15:25:31;5.22;;;2.00;;
16387;SDS011;8303;53.446;9.988;2022-10-16T15:28:05;4.63;;;2.13;;
16387;SDS011;8303;53.446;9.988;2022-10-16T15:30:32;3.70;;;2.17;;
16387;SDS011;8303;53.446;9.988;2022-10-16T15:32:59;3.90;;;1.80;;
16387;SDS011;8303;53.446;9.988;2022-10-16T15:35:27;4.33;;;2.10;;
16387;SDS011;8303;53.446;9.988;2022-10-16T15:37:54;3.90;;;2.00;;
16387;SDS011;8303;53.446;9.988;2022-10-16T15:40:21;6.85;;;2.50;;
16387;SDS011;8303;53.446;9.988;2022-10-16T15:42:49;4.97;;;2.15;;
16387;SDS011;8303;53.446;9.988;2022-10-16T15:45:16;6.47;;;2.30;;
16387;SDS011;8303;53.446;9.988;2022-10-16T15:47:44;5.83;;;2.20;;
16387;SDS011;8303;53.446;9.988;2022-10-16T15:53:03;5.47;;;2.10;;
16387;SDS011;8303;53.446;9.988;2022-10-16T15:55:30;5.17;;;2.70;;
16387;SDS011;8303;53.446;9.988;2022-10-16T15:58:00;4.70;;;1.80;;
16387;SDS011;8303;53.446;9.988;2022-10-16T16:00:27;4.37;;;1.97;;
16387;SDS011;8303;53.446;9.988;2022-10-16T16:02:54;3.53;;;2.00;;
16387;SDS011;8303;53.446;9.988;2022-10-16T16:05:21;3.40;;;2.47;;
16387;SDS011;8303;53.446;9.988;2022-10-16T16:07:50;5.30;;;2.90;;
16387;SDS011;8303;53.446;9.988;2022-10-16T16:10:17;6.10;;;2.37;;
16387;SDS011;8303;53.446;9.988;2022-10-16T16:12:45;5.37;;;2.40;;
16387;SDS011;8303;53.446;9.988;2022-10-16T16:15:16;3.47;;;2.77;;
16387;SDS011;8303;53.446;9.988;2022-10-16T16:17:43;5.73;;;2.87;;
16387;SDS011;8303;53.446;9.988;2022-10-16T16:20:10;8.40;;;3.33;;
16387;SDS011;8303;53.446;9.988;2022-10-16T16:22:37;7.77;;;3.60;;
16387;SDS011;8303;53.446;9.988;2022-10-16T16:25:06;7.30;;;4.00;;
16387;SDS011;8303;53.446;9.988;2022-10-16T16:27:34;9.20;;;4.10;;
16387;SDS011;8303;53.446;9.988;2022-10-16T16:30:03;11.50;;;4.20;;
16387;SDS011;8303;53.446;9.988;2022-10-16T16:32:32;8.40;;;4.07;;
16387;SDS011;8303;53.446;9.988;2022-10-16T16:35:02;7.77;;;4.70;;
16387;SDS011;8303;53.446;9.988;2022-10-16T16:37:32;8.03;;;4.90;;
16387;SDS011;8303;53.446;9.988;2022-10-16T16:39:59;10.07;;;5.13;;
16387;SDS011;8303;53.446;9.988;2022-10-16T16:42:31;6.23;;;4.67;;
16387;SDS011;8303;53.446;9.988;2022-10-16T16:45:00;7.57;;;4.50;;
16387;SDS011;8303;53.446;9.988;2022-10-16T16:47:27;8.20;;;5.50;;
16387;SDS011;8303;53.446;9.988;2022-10-16T16:49:54;6.90;;;4.33;;
16387;SDS011;8303;53.446;9.988;2022-10-16T16:52:22;11.67;;;4.97;;
16387;SDS011;8303;53.446;9.988;2022-10-16T16:54:51;10.17;;;4.70;;
16387;SDS011;8303;53.446;9.988;2022-10-16T16:57:19;8.83;;;4.97;;
16387;SDS011;8303;53.446;9.988;2022-10-16T16:59:49;11.33;;;5.20;;
16387;SDS011;8303;53.446;9.988;2022-10-16T17:02:16;8.57;;;5.33;;
16387;SDS011;8303;53.446;9.988;2022-10-16T17:04:43;12.43;;;5.20;;
16387;SDS011;8303;53.446;9.988;2022-10-16T17:07:10;8.43;;;4.73;;
16387;SDS011;8303;53.446;9.988;2022-10-16T17:09:36;8.13;;;4.70;;
16387;SDS011;8303;53.446;9.988;2022-10-16T17:12:03;11.43;;;4.93;;
16387;SDS011;8303;53.446;9.988;2022-10-16T17:14:31;8.53;;;4.43;;
16387;SDS011;8303;53.446;9.988;2022-10-16T17:16:59;5.93;;;4.47;;
16387;SDS011;8303;53.446;9.988;2022-10-16T17:19:26;9.07;;;4.53;;
16387;SDS011;8303;53.446;9.988;2022-10-16T17:21:53;12.17;;;4.40;;
16387;SDS011;8303;53.446;9.988;2022-10-16T17:24:20;10.30;;;4.33;;
16387;SDS011;8303;53.446;9.988;2022-10-16T17:26:46;7.77;;;4.27;;
16387;SDS011;8303;53.446;9.988;2022-10-16T17:29:14;9.40;;;4.90;;
16387;SDS011;8303;53.446;9.988;2022-10-16T17:31:42;12.53;;;4.80;;
16387;SDS011;8303;53.446;9.988;2022-10-16T17:34:10;6.03;;;4.73;;
16387;SDS011;8303;53.446;9.988;2022-10-16T17:36:38;8.07;;;4.97;;
16387;SDS011;8303;53.446;9.988;2022-10-16T17:39:08;9.73;;;5.37;;
16387;SDS011;8303;53.446;9.988;2022-10-16T17:41:37;15.10;;;7.50;;
16387;SDS011;8303;53.446;9.988;2022-10-16T17:44:04;9.53;;;5.60;;
16387;SDS011;8303;53.446;9.988;2022-10-16T17:46:32;8.87;;;5.83;;
16387;SDS011;8303;53.446;9.988;2022-10-16T17:48:59;10.87;;;5.50;;
16387;SDS011;8303;53.446;9.988;2022-10-16T17:51:29;10.50;;;5.67;;
16387;SDS011;8303;53.446;9.988;2022-10-16T17:53:57;13.13;;;6.73;;
16387;SDS011;8303;53.446;9.988;2022-10-16T17:56:25;11.93;;;5.60;;
16387;SDS011;8303;53.446;9.988;2022-10-16T17:58:53;12.13;;;6.10;;
16387;SDS011;8303;53.446;9.988;2022-10-16T18:01:24;14.43;;;6.27;;
16387;SDS011;8303;53.446;9.988;2022-10-16T18:03:54;13.53;;;6.80;;
16387;SDS011;8303;53.446;9.988;2022-10-16T18:06:22;11.17;;;6.30;;
16387;SDS011;8303;53.446;9.988;2022-10-16T18:08:51;11.00;;;6.57;;
16387;SDS011;8303;53.446;9.988;2022-10-16T18:11:33;10.87;;;6.57;;
16387;SDS011;8303;53.446;9.988;2022-10-16T18:14:00;12.37;;;7.20;;
16387;SDS011;8303;53.446;9.988;2022-10-16T18:16:28;14.93;;;7.37;;
16387;SDS011;8303;53.446;9.988;2022-10-16T18:18:55;13.07;;;6.80;;
16387;SDS011;8303;53.446;9.988;2022-10-16T18:24:47;9.97;;;5.80;;
16387;SDS011;8303;53.446;9.988;2022-10-16T18:27:13;11.50;;;6.67;;
16387;SDS011;8303;53.446;9.988;2022-10-16T18:29:41;11.17;;;6.33;;
16387;SDS011;8303;53.446;9.988;2022-10-16T18:32:07;14.20;;;7.00;;
16387;SDS011;8303;53.446;9.988;2022-10-16T18:34:34;12.10;;;7.30;;
16387;SDS011;8303;53.446;9.988;2022-10-16T18:37:01;12.70;;;7.70;;
16387;SDS011;8303;53.446;9.988;2022-10-16T18:39:28;12.83;;;7.67;;
16387;SDS011;8303;53.446;9.988;2022-10-16T18:41:56;10.33;;;7.03;;
16387;SDS011;8303;53.446;9.988;2022-10-16T18:44:24;13.13;;;7.57;;
16387;SDS011;8303;53.446;9.988;2022-10-16T18:46:52;11.67;;;6.83;;
16387;SDS011;8303;53.446;9.988;2022-10-16T18:49:21;11.40;;;7.03;;
16387;SDS011;8303;53.446;9.988;2022-10-16T18:51:47;15.57;;;7.97;;
16387;SDS011;8303;53.446;9.988;2022-10-16T19:01:03;17.20;;;8.00;;
16387;SDS011;8303;53.446;9.988;2022-10-16T19:03:31;10.57;;;7.00;;
16387;SDS011;8303;53.446;9.988;2022-10-16T19:05:58;10.90;;;6.63;;
16387;SDS011;8303;53.446;9.988;2022-10-16T19:08:26;12.23;;;6.67;;
16387;SDS011;8303;53.446;9.988;2022-10-16T19:10:53;11.07;;;6.37;;
16387;SDS011;8303;53.446;9.988;2022-10-16T19:13:20;9.33;;;5.70;;
16387;SDS011;8303;53.446;9.988;2022-10-16T19:15:48;15.03;;;6.57;;
16387;SDS011;8303;53.446;9.988;2022-10-16T19:18:15;15.20;;;6.87;;
16387;SDS011;8303;53.446;9.988;2022-10-16T19:20:43;9.57;;;6.80;;
16387;SDS011;8303;53.446;9.988;2022-10-16T19:23:09;13.10;;;7.37;;
16387;SDS011;8303;53.446;9.988;2022-10-16T19:25:36;10.37;;;6.30;;
16387;SDS011;8303;53.446;9.988;2022-10-16T19:28:04;9.87;;;6.17;;
16387;SDS011;8303;53.446;9.988;2022-10-16T19:30:34;13.43;;;7.00;;
16387;SDS011;8303;53.446;9.988;2022-10-16T19:33:03;14.43;;;6.93;;
16387;SDS011;8303;53.446;9.988;2022-10-16T19:35:31;15.77;;;7.57;;
16387;SDS011;8303;53.446;9.988;2022-10-16T19:37:58;12.63;;;7.40;;
16387;SDS011;8303;53.446;9.988;2022-10-16T19:40:25;11.67;;;6.57;;
16387;SDS011;8303;53.446;9.988;2022-10-16T19:42:52;12.10;;;6.57;;
16387;SDS011;8303;53.446;9.988;2022-10-16T19:45:19;10.80;;;7.20;;
16387;SDS011;8303;53.446;9.988;2022-10-16T19:47:46;16.83;;;6.53;;
16387;SDS011;8303;53.446;9.988;2022-10-16T19:50:14;16.30;;;7.43;;
16387;SDS011;8303;53.446;9.988;2022-10-16T19:52:43;10.70;;;7.03;;
16387;SDS011;8303;53.446;9.988;2022-10-16T19:55:09;11.57;;;7.27;;
16387;SDS011;8303;53.446;9.988;2022-10-16T19:57:36;12.97;;;7.37;;
16387;SDS011;8303;53.446;9.988;2022-10-16T20:00:03;15.37;;;7.70;;
16387;SDS011;8303;53.446;9.988;2022-10-16T20:02:32;10.50;;;6.47;;
16387;SDS011;8303;53.446;9.988;2022-10-16T20:04:59;12.90;;;6.50;;
16387;SDS011;8303;53.446;9.988;2022-10-16T20:23:54;11.57;;;8.77;;
16387;SDS011;8303;53.446;9.988;2022-10-16T20:26:23;12.20;;;7.57;;
16387;SDS011;8303;53.446;9.988;2022-10-16T20:28:51;10.97;;;6.97;;
